createdAt,value
2023-05-22T00:01:06.846Z,27.80
2023-05-22T00:03:36.506Z,27.80
2023-05-22T00:06:06.251Z,27.80
2023-05-22T00:08:34.410Z,27.80
2023-05-22T00:11:04.020Z,27.70
2023-05-22T00:13:31.986Z,27.70
2023-05-22T00:16:00.142Z,27.70
2023-05-22T00:18:28.299Z,27.70
2023-05-22T00:20:56.544Z,27.70
2023-05-22T00:23:27.946Z,27.70
2023-05-22T00:25:56.112Z,27.70
2023-05-22T00:28:25.607Z,27.60
2023-05-22T00:30:53.824Z,27.60
2023-05-22T00:33:22.009Z,27.60
2023-05-22T00:35:50.102Z,27.60
2023-05-22T00:38:30.585Z,27.60
2023-05-22T00:40:58.961Z,27.60
2023-05-22T00:43:28.481Z,27.50
2023-05-22T00:45:56.588Z,27.50
2023-05-22T00:48:25.075Z,27.50
2023-05-22T00:50:54.911Z,27.50
2023-05-22T00:53:25.362Z,27.50
2023-05-22T00:55:54.886Z,27.40
2023-05-22T00:58:24.891Z,27.40
2023-05-22T01:00:55.476Z,27.40
2023-05-22T01:03:27.248Z,27.40
2023-05-22T01:05:56.391Z,27.40
2023-05-22T01:08:24.544Z,27.40
2023-05-22T01:10:57.950Z,27.40
2023-05-22T01:13:33.127Z,27.40
2023-05-22T01:16:12.054Z,27.30
2023-05-22T01:18:47.756Z,27.30
2023-05-22T01:21:24.974Z,27.30
2023-05-22T01:24:28.000Z,27.30
2023-05-22T01:27:42.228Z,27.30
2023-05-22T01:30:28.914Z,27.30
2023-05-22T01:32:59.407Z,27.30
2023-05-22T01:35:28.788Z,27.30
2023-05-22T01:37:58.941Z,27.20
2023-05-22T01:40:27.873Z,27.20
2023-05-22T01:42:56.538Z,27.20
2023-05-22T01:45:24.930Z,27.20
2023-05-22T01:47:53.323Z,27.20
2023-05-22T01:50:22.918Z,27.20
2023-05-22T01:52:55.084Z,27.20
2023-05-22T01:55:29.473Z,27.10
2023-05-22T01:58:03.715Z,27.10
2023-05-22T02:00:33.541Z,27.10
2023-05-22T02:03:08.055Z,27.10
2023-05-22T02:05:41.334Z,27.10
2023-05-22T02:08:10.120Z,27.00
2023-05-22T02:10:39.992Z,27.10
2023-05-22T02:13:08.485Z,27.00
2023-05-22T02:15:37.067Z,27.00
2023-05-22T02:18:10.796Z,27.00
2023-05-22T02:20:40.765Z,27.00
2023-05-22T02:23:09.142Z,27.00
2023-05-22T02:25:37.291Z,26.90
2023-05-22T02:28:05.616Z,26.90
2023-05-22T02:30:33.767Z,26.90
2023-05-22T02:33:05.530Z,26.90
2023-05-22T02:35:33.842Z,26.90
2023-05-22T02:38:03.701Z,26.90
2023-05-22T02:40:31.828Z,26.90
2023-05-22T02:42:59.913Z,26.80
2023-05-22T02:45:28.122Z,26.80
2023-05-22T02:47:56.391Z,26.80
2023-05-22T02:50:24.568Z,26.80
2023-05-22T02:52:52.695Z,26.80
2023-05-22T02:55:22.812Z,26.80
2023-05-22T02:57:50.939Z,26.70
2023-05-22T03:00:20.677Z,26.70
2023-05-22T03:02:48.843Z,26.70
2023-05-22T03:05:17.971Z,26.70
2023-05-22T03:07:48.820Z,26.70
2023-05-22T03:10:17.141Z,26.70
2023-05-22T03:12:46.640Z,26.70
2023-05-22T03:15:14.744Z,26.70
2023-05-22T03:17:42.904Z,26.70
2023-05-22T03:20:14.989Z,26.70
2023-05-22T03:22:43.273Z,26.60
2023-05-22T03:25:11.439Z,26.60
2023-05-22T03:27:41.162Z,26.60
2023-05-22T03:30:11.679Z,26.60
2023-05-22T03:32:39.875Z,26.60
2023-05-22T03:35:08.768Z,26.50
2023-05-22T03:37:36.889Z,26.60
2023-05-22T03:40:05.961Z,26.50
2023-05-22T03:42:34.070Z,26.50
2023-05-22T03:45:02.211Z,26.50
2023-05-22T03:47:31.710Z,26.50
2023-05-22T03:49:59.843Z,26.50
2023-05-22T03:52:27.954Z,26.50
2023-05-22T03:54:56.094Z,26.50
2023-05-22T03:57:24.174Z,26.50
2023-05-22T03:59:52.298Z,26.50
2023-05-22T04:02:21.155Z,26.50
2023-05-22T04:04:50.815Z,26.50
2023-05-22T04:07:20.355Z,26.50
2023-05-22T04:09:48.505Z,26.50
2023-05-22T04:12:16.748Z,26.50
2023-05-22T04:14:44.858Z,26.50
2023-05-22T04:17:12.968Z,26.50
2023-05-22T04:19:41.087Z,26.50
2023-05-22T04:22:10.564Z,26.50
2023-05-22T04:24:39.855Z,26.50
2023-05-22T04:27:08.041Z,26.50
2023-05-22T04:29:37.126Z,26.50
2023-05-22T04:32:06.354Z,26.50
2023-05-22T04:34:37.409Z,26.50
2023-05-22T04:37:06.309Z,26.60
2023-05-22T04:39:35.861Z,26.60
2023-05-22T04:42:05.962Z,26.60
2023-05-22T04:44:34.663Z,26.60
2023-05-22T04:47:05.986Z,26.60
2023-05-22T04:49:35.635Z,26.60
2023-05-22T04:52:06.028Z,26.60
2023-05-22T04:54:36.223Z,26.50
2023-05-22T04:57:05.130Z,26.40
2023-05-22T04:59:33.591Z,26.40
2023-05-22T05:02:01.672Z,26.40
2023-05-22T05:04:29.792Z,26.30
2023-05-22T05:06:58.679Z,26.30
2023-05-22T05:09:27.122Z,26.20
2023-05-22T05:11:56.894Z,26.20
2023-05-22T05:14:25.083Z,26.20
2023-05-22T05:16:53.590Z,26.30
2023-05-22T05:19:22.334Z,26.30
2023-05-22T05:21:50.870Z,26.40
2023-05-22T05:24:19.081Z,26.40
2023-05-22T05:26:47.370Z,26.50
2023-05-22T05:29:16.938Z,26.50
2023-05-22T05:31:45.088Z,26.60
2023-05-22T05:34:13.564Z,26.60
2023-05-22T05:36:41.869Z,26.70
2023-05-22T05:39:10.015Z,26.70
2023-05-22T05:41:38.134Z,26.80
2023-05-22T05:44:06.478Z,26.80
2023-05-22T05:46:36.250Z,26.90
2023-05-22T05:49:10.081Z,26.90
2023-05-22T05:51:38.410Z,27.00
2023-05-22T05:54:07.034Z,27.10
2023-05-22T05:56:35.197Z,27.10
2023-05-22T05:59:04.001Z,27.10
2023-05-22T06:01:35.849Z,27.20
2023-05-22T06:04:05.747Z,27.20
2023-05-22T06:06:36.377Z,27.30
2023-05-22T06:09:06.585Z,27.30
2023-05-22T06:11:35.154Z,27.40
2023-05-22T06:14:03.945Z,27.40
2023-05-22T06:16:32.222Z,27.40
2023-05-22T06:19:00.980Z,27.50
2023-05-22T06:21:31.115Z,27.50
2023-05-22T06:23:59.435Z,27.60
2023-05-22T06:26:27.835Z,27.70
2023-05-22T06:28:55.961Z,27.80
2023-05-22T06:31:24.543Z,27.80
2023-05-22T06:33:52.807Z,27.90
2023-05-22T06:36:21.027Z,28.00
2023-05-22T06:38:51.966Z,28.00
2023-05-22T06:41:20.105Z,28.00
2023-05-22T06:43:48.210Z,28.20
2023-05-22T06:46:16.381Z,28.20
2023-05-22T06:48:44.562Z,28.30
2023-05-22T06:51:12.825Z,28.30
2023-05-22T06:53:40.940Z,28.30
2023-05-22T06:56:10.467Z,28.40
2023-05-22T06:58:38.388Z,28.50
2023-05-22T07:01:06.559Z,28.50
2023-05-22T07:03:34.691Z,28.50
2023-05-22T07:06:03.175Z,28.60
2023-05-22T07:08:31.355Z,28.70
2023-05-22T07:10:59.498Z,28.70
2023-05-22T07:13:32.070Z,28.90
2023-05-22T07:16:00.262Z,29.00
2023-05-22T07:18:28.435Z,29.00
2023-05-22T07:20:56.590Z,29.10
2023-05-22T07:23:26.215Z,29.10
2023-05-22T07:25:54.616Z,29.30
2023-05-22T07:28:22.709Z,29.40
2023-05-22T07:30:52.218Z,29.40
2023-05-22T07:33:20.087Z,29.50
2023-05-22T07:35:48.212Z,29.60
2023-05-22T07:38:16.327Z,29.90
2023-05-22T07:40:44.477Z,30.20
2023-05-22T07:43:12.682Z,30.50
2023-05-22T07:45:41.072Z,30.70
2023-05-22T07:48:11.937Z,30.90
2023-05-22T07:53:13.033Z,30.80
2023-05-22T07:55:41.476Z,30.60
2023-05-22T07:58:10.882Z,30.60
2023-05-22T08:00:39.073Z,30.50
2023-05-22T08:03:07.481Z,30.70
2023-05-22T08:05:37.096Z,30.80
2023-05-22T08:08:05.283Z,31.00
2023-05-22T08:10:47.128Z,31.20
2023-05-22T08:13:21.647Z,31.30
2023-05-22T08:15:49.788Z,31.20
2023-05-22T08:18:18.069Z,31.20
2023-05-22T08:20:47.851Z,31.00
2023-05-22T08:23:16.004Z,31.00
2023-05-22T08:25:44.210Z,31.10
2023-05-22T08:28:12.385Z,31.20
2023-05-22T08:30:40.701Z,31.40
2023-05-22T08:33:09.137Z,31.30
2023-05-22T08:35:37.374Z,31.40
2023-05-22T08:38:07.323Z,31.40
2023-05-22T08:40:38.409Z,31.40
2023-05-22T08:43:07.763Z,31.70
2023-05-22T08:45:36.177Z,32.10
2023-05-22T08:48:06.960Z,32.40
2023-05-22T08:50:37.246Z,32.60
2023-05-22T08:53:09.392Z,32.90
2023-05-22T08:55:37.840Z,33.00
2023-05-22T08:58:06.420Z,33.00
2023-05-22T09:00:35.113Z,33.00
2023-05-22T09:03:03.505Z,32.90
2023-05-22T09:05:31.694Z,33.00
2023-05-22T09:08:08.434Z,33.00
2023-05-22T09:10:46.429Z,33.00
2023-05-22T09:13:26.648Z,32.90
2023-05-22T09:15:55.360Z,33.00
2023-05-22T09:18:28.602Z,33.20
2023-05-22T09:20:59.150Z,32.90
2023-05-22T09:23:29.583Z,32.50
2023-05-22T09:26:00.336Z,32.60
2023-05-22T09:28:33.663Z,32.70
2023-05-22T09:31:04.151Z,32.80
2023-05-22T09:33:33.303Z,33.20
2023-05-22T09:36:02.160Z,33.60
2023-05-22T09:38:31.606Z,34.10
2023-05-22T09:41:01.098Z,34.10
2023-05-22T09:43:29.210Z,34.40
2023-05-22T09:45:58.983Z,34.40
2023-05-22T09:48:27.397Z,34.40
2023-05-22T09:50:56.303Z,34.70
2023-05-22T09:53:28.588Z,34.90
2023-05-22T09:55:58.840Z,35.00
2023-05-22T09:58:32.293Z,34.80
2023-05-22T10:01:01.966Z,34.70
2023-05-22T10:03:32.459Z,35.30
2023-05-22T10:06:02.079Z,36.00
2023-05-22T10:08:32.033Z,36.90
2023-05-22T10:11:00.219Z,37.40
2023-05-22T10:13:31.409Z,37.80
2023-05-22T10:16:00.893Z,38.60
2023-05-22T10:18:29.768Z,39.20
2023-05-22T10:20:59.061Z,39.90
2023-05-22T10:23:29.505Z,40.40
2023-05-22T10:25:58.607Z,41.00
2023-05-22T10:28:34.041Z,41.20
2023-05-22T10:31:07.524Z,40.40
2023-05-22T10:33:41.903Z,39.70
2023-05-22T10:36:12.749Z,39.40
2023-05-22T10:39:01.173Z,39.50
2023-05-22T10:41:31.088Z,39.30
2023-05-22T10:44:00.839Z,39.30
2023-05-22T10:46:34.332Z,38.50
2023-05-22T10:49:02.597Z,38.60
2023-05-22T10:51:30.920Z,39.20
2023-05-22T10:54:00.982Z,38.80
2023-05-22T10:56:35.382Z,38.20
2023-05-22T10:59:08.034Z,38.10
2023-05-22T11:01:38.549Z,37.90
2023-05-22T11:04:12.914Z,37.80
2023-05-22T11:06:42.481Z,37.70
2023-05-22T11:09:31.010Z,37.40
2023-05-22T11:12:19.578Z,37.30
2023-05-22T11:14:54.480Z,37.90
2023-05-22T11:17:24.443Z,38.40
2023-05-22T11:20:05.088Z,39.00
2023-05-22T11:22:37.699Z,39.60
2023-05-22T11:25:08.935Z,39.90
2023-05-22T11:27:37.954Z,40.20
2023-05-22T11:30:09.481Z,40.60
2023-05-22T11:32:38.140Z,40.70
2023-05-22T11:35:08.438Z,39.90
2023-05-22T11:37:40.068Z,39.30
2023-05-22T11:40:09.601Z,39.20
2023-05-22T11:42:38.674Z,39.80
2023-05-22T11:45:10.072Z,39.50
2023-05-22T11:47:38.714Z,39.30
2023-05-22T11:50:09.884Z,39.90
2023-05-22T11:52:39.549Z,40.30
2023-05-22T11:55:09.200Z,40.50
2023-05-22T11:57:38.280Z,40.80
2023-05-22T12:00:10.642Z,40.70
2023-05-22T12:02:39.214Z,40.90
2023-05-22T12:05:10.540Z,41.20
2023-05-22T12:07:39.267Z,41.50
2023-05-22T12:10:08.284Z,41.80
2023-05-22T12:12:36.483Z,42.10
2023-05-22T12:15:08.724Z,42.30
2023-05-22T12:17:38.440Z,42.10
2023-05-22T12:20:07.453Z,42.10
2023-05-22T12:22:41.832Z,42.40
2023-05-22T12:25:15.982Z,42.20
2023-05-22T12:27:45.296Z,41.50
2023-05-22T12:30:17.036Z,41.80
2023-05-22T12:32:49.827Z,41.80
2023-05-22T12:35:18.602Z,41.50
2023-05-22T12:37:50.473Z,41.60
2023-05-22T12:40:18.993Z,41.90
2023-05-22T12:42:47.097Z,42.10
2023-05-22T12:45:17.989Z,42.30
2023-05-22T12:47:46.503Z,41.90
2023-05-22T12:50:14.853Z,41.00
2023-05-22T12:52:43.031Z,40.40
2023-05-22T12:55:12.061Z,39.80
2023-05-22T12:57:40.147Z,39.30
2023-05-22T13:00:10.109Z,38.80
2023-05-22T13:02:39.732Z,38.30
2023-05-22T13:05:08.582Z,37.90
2023-05-22T13:07:36.969Z,37.60
2023-05-22T13:10:06.207Z,37.60
2023-05-22T13:12:34.365Z,37.40
2023-05-22T13:15:02.937Z,37.30
2023-05-22T13:17:31.059Z,37.20
2023-05-22T13:20:00.675Z,37.30
2023-05-22T13:22:28.818Z,37.70
2023-05-22T13:24:56.916Z,38.30
2023-05-22T13:27:25.025Z,39.00
2023-05-22T13:29:53.269Z,39.90
2023-05-22T13:32:21.620Z,40.20
2023-05-22T13:34:49.911Z,40.40
2023-05-22T13:37:19.760Z,40.70
2023-05-22T13:39:47.876Z,40.90
2023-05-22T13:42:16.073Z,41.50
2023-05-22T13:44:44.224Z,42.10
2023-05-22T13:47:12.636Z,42.20
2023-05-22T13:49:40.994Z,42.10
2023-05-22T13:52:09.156Z,41.90
2023-05-22T13:54:38.700Z,41.90
2023-05-22T13:57:07.113Z,41.80
2023-05-22T13:59:35.265Z,41.90
2023-05-22T14:02:03.492Z,42.40
2023-05-22T14:04:31.950Z,42.80
2023-05-22T14:07:00.097Z,43.20
2023-05-22T14:09:28.307Z,42.80
2023-05-22T14:11:58.092Z,42.20
2023-05-22T14:14:26.462Z,41.90
2023-05-22T14:16:55.050Z,41.60
2023-05-22T14:19:23.463Z,41.50
2023-05-22T14:21:52.425Z,41.30
2023-05-22T14:24:20.597Z,41.00
2023-05-22T14:26:48.713Z,40.40
2023-05-22T14:29:18.462Z,39.80
2023-05-22T14:31:51.248Z,39.20
2023-05-22T14:34:20.096Z,38.90
2023-05-22T14:36:48.635Z,38.50
2023-05-22T14:39:16.874Z,38.10
2023-05-22T14:41:45.022Z,38.30
2023-05-22T14:44:13.124Z,38.70
2023-05-22T14:46:42.674Z,38.80
2023-05-22T14:49:10.843Z,39.00
2023-05-22T14:51:39.014Z,39.00
2023-05-22T14:54:08.046Z,38.70
2023-05-22T14:56:36.263Z,38.00
2023-05-22T14:59:04.377Z,37.70
2023-05-22T15:01:32.555Z,37.50
2023-05-22T15:04:02.032Z,37.10
2023-05-22T15:06:30.152Z,36.60
2023-05-22T15:08:58.281Z,36.00
2023-05-22T15:11:26.602Z,35.40
2023-05-22T15:13:55.545Z,35.20
2023-05-22T15:16:25.644Z,35.20
2023-05-22T15:18:55.019Z,35.20
2023-05-22T15:21:25.598Z,35.10
2023-05-22T15:23:53.777Z,35.10
2023-05-22T15:26:22.416Z,35.00
2023-05-22T15:28:50.506Z,34.90
2023-05-22T15:31:18.698Z,34.90
2023-05-22T15:33:46.926Z,34.90
2023-05-22T15:36:15.022Z,34.80
2023-05-22T15:38:44.534Z,34.60
2023-05-22T15:46:12.228Z,32.80
2023-05-22T15:48:40.493Z,32.40
2023-05-22T15:51:09.642Z,32.40
2023-05-22T15:53:37.860Z,32.20
2023-05-22T15:56:07.950Z,32.00
2023-05-22T15:58:36.103Z,31.90
2023-05-22T16:01:04.265Z,31.80
2023-05-22T16:03:32.519Z,31.70
2023-05-22T16:06:00.808Z,31.50
2023-05-22T16:08:28.900Z,31.50
2023-05-22T16:11:00.661Z,31.40
2023-05-22T16:13:30.195Z,31.30
2023-05-22T16:15:58.350Z,31.20
2023-05-22T16:18:26.503Z,31.20
2023-05-22T16:20:54.608Z,31.10
2023-05-22T16:23:22.753Z,31.00
2023-05-22T16:25:50.971Z,30.90
2023-05-22T16:28:19.100Z,30.90
2023-05-22T16:30:48.596Z,31.00
2023-05-22T16:33:16.942Z,31.30
2023-05-22T16:35:46.928Z,31.60
2023-05-22T16:38:15.229Z,31.90
2023-05-22T16:40:43.379Z,32.20
2023-05-22T16:43:13.805Z,32.00
2023-05-22T16:45:46.499Z,32.00
2023-05-22T16:48:16.347Z,31.90
2023-05-22T16:50:46.595Z,31.90
2023-05-22T16:53:16.775Z,31.90
2023-05-22T16:55:44.993Z,32.00
2023-05-22T16:58:14.037Z,32.10
2023-05-22T17:00:43.066Z,32.10
2023-05-22T17:03:12.109Z,32.20
2023-05-22T17:05:42.077Z,32.10
2023-05-22T17:08:10.542Z,32.10
2023-05-22T17:10:38.714Z,32.00
2023-05-22T17:13:06.823Z,32.00
2023-05-22T17:15:35.068Z,31.90
2023-05-22T17:18:03.288Z,31.90
2023-05-22T17:20:32.800Z,31.90
2023-05-22T17:23:02.328Z,31.90
2023-05-22T17:25:30.463Z,31.90
2023-05-22T17:27:58.592Z,31.90
2023-05-22T17:30:26.758Z,31.80
2023-05-22T17:32:56.885Z,31.80
2023-05-22T17:35:25.168Z,31.70
2023-05-22T17:37:53.511Z,31.70
2023-05-22T17:40:29.531Z,31.60
2023-05-22T17:43:04.585Z,31.60
2023-05-22T17:45:32.746Z,31.50
2023-05-22T17:48:00.932Z,31.50
2023-05-22T17:50:29.071Z,31.40
2023-05-22T17:52:57.177Z,31.40
2023-05-22T17:55:26.621Z,31.40
2023-05-22T17:57:54.961Z,31.30
2023-05-22T18:00:23.128Z,31.20
2023-05-22T18:02:51.375Z,31.20
2023-05-22T18:05:21.107Z,31.10
2023-05-22T18:07:49.402Z,31.10
2023-05-22T18:10:17.581Z,31.00
2023-05-22T18:12:47.061Z,31.00
2023-05-22T18:15:14.943Z,30.90
2023-05-22T18:17:43.046Z,30.90
2023-05-22T18:20:12.769Z,30.90
2023-05-22T18:22:41.297Z,30.90
2023-05-22T18:25:10.718Z,30.80
2023-05-22T18:27:38.973Z,30.80
2023-05-22T18:30:10.112Z,30.70
2023-05-22T18:32:38.537Z,30.70
2023-05-22T18:35:07.624Z,30.70
2023-05-22T18:37:36.923Z,30.60
2023-05-22T18:40:06.676Z,30.60
2023-05-22T18:42:34.767Z,30.60
2023-05-22T18:45:02.935Z,30.50
2023-05-22T18:47:32.456Z,30.50
2023-05-22T18:50:00.626Z,30.50
2023-05-22T18:52:28.716Z,30.50
2023-05-22T18:54:56.823Z,30.50
2023-05-22T18:57:24.937Z,30.40
2023-05-22T18:59:53.062Z,30.40
2023-05-22T19:02:22.075Z,30.40
2023-05-22T19:04:51.800Z,30.30
2023-05-22T19:07:21.225Z,30.30
2023-05-22T19:09:49.649Z,30.30
2023-05-22T19:12:17.805Z,30.30
2023-05-22T19:14:48.301Z,30.30
2023-05-22T19:17:16.644Z,30.20
2023-05-22T19:19:44.810Z,30.20
2023-05-22T19:22:17.699Z,30.10
2023-05-22T19:24:46.125Z,30.10
2023-05-22T19:27:14.264Z,30.10
2023-05-22T19:29:42.372Z,30.00
2023-05-22T19:32:10.598Z,30.00
2023-05-22T19:34:38.755Z,30.00
2023-05-22T19:37:07.521Z,30.00
2023-05-22T19:39:37.069Z,29.90
2023-05-22T19:42:08.179Z,29.90
2023-05-22T19:44:36.344Z,29.90
2023-05-22T19:47:04.461Z,29.80
2023-05-22T19:49:36.784Z,29.80
2023-05-22T19:52:05.786Z,29.70
2023-05-22T19:54:33.919Z,29.70
2023-05-22T19:57:04.020Z,29.70
2023-05-22T19:59:32.912Z,29.70
2023-05-22T20:02:02.306Z,29.60
2023-05-22T20:04:31.671Z,29.60
2023-05-22T20:06:59.772Z,29.60
2023-05-22T20:09:27.899Z,29.60
2023-05-22T20:11:55.984Z,29.50
2023-05-22T20:14:25.563Z,29.50
2023-05-22T20:16:54.369Z,29.50
2023-05-22T20:19:24.341Z,29.50
2023-05-22T20:21:52.539Z,29.50
2023-05-22T20:24:21.974Z,29.40
2023-05-22T20:26:50.086Z,29.40
2023-05-22T20:29:18.647Z,29.40
2023-05-22T20:31:48.232Z,29.30
2023-05-22T20:34:16.536Z,29.10
2023-05-22T20:36:46.620Z,28.90
2023-05-22T20:39:14.784Z,28.70
2023-05-22T20:41:43.049Z,28.60
2023-05-22T20:44:11.159Z,28.40
2023-05-22T20:46:39.300Z,28.30
2023-05-22T20:49:08.946Z,28.20
2023-05-22T20:51:37.071Z,28.10
2023-05-22T20:54:05.436Z,28.00
2023-05-22T20:56:33.568Z,27.90
2023-05-22T20:59:01.745Z,27.90
2023-05-22T21:01:30.025Z,28.00
2023-05-22T21:03:58.235Z,28.00
2023-05-22T21:06:27.949Z,28.00
2023-05-22T21:08:59.729Z,28.10
2023-05-22T21:11:27.985Z,28.10
2023-05-22T21:13:56.216Z,28.00
2023-05-22T21:16:25.532Z,28.00
2023-05-22T21:18:53.765Z,28.00
2023-05-22T21:21:21.894Z,27.90
2023-05-22T21:23:52.500Z,27.90
2023-05-22T21:26:22.347Z,28.00
2023-05-22T21:28:50.868Z,28.00
2023-05-22T21:31:19.022Z,28.00
2023-05-22T21:33:47.212Z,28.00
2023-05-22T21:36:15.389Z,28.00
2023-05-22T21:38:43.535Z,28.00
2023-05-22T21:41:13.284Z,28.00
2023-05-22T21:43:41.431Z,27.90
2023-05-22T21:46:09.929Z,28.00
2023-05-22T21:48:38.119Z,27.90
2023-05-22T21:51:06.811Z,27.90
2023-05-22T21:53:34.949Z,27.90
2023-05-22T21:56:03.093Z,27.80
2023-05-22T21:58:32.624Z,27.90
2023-05-22T22:01:00.558Z,27.80
2023-05-22T22:03:28.827Z,27.80
2023-05-22T22:05:57.154Z,27.80
2023-05-22T22:08:27.156Z,27.80
2023-05-22T22:10:55.440Z,27.80
2023-05-22T22:13:23.573Z,27.80
2023-05-22T22:15:53.737Z,27.70
2023-05-22T22:18:22.056Z,27.70
2023-05-22T22:20:54.035Z,27.70
2023-05-22T22:23:22.867Z,27.70
2023-05-22T22:25:51.473Z,27.70
2023-05-22T22:28:19.671Z,27.60
2023-05-22T22:30:48.412Z,27.60
2023-05-22T22:33:18.018Z,27.60
2023-05-22T22:35:45.986Z,27.60
2023-05-22T22:38:14.124Z,27.60
2023-05-22T22:40:42.644Z,27.50
2023-05-22T22:43:11.388Z,27.50
2023-05-22T22:45:40.720Z,27.50
2023-05-22T22:48:09.052Z,27.50
2023-05-22T22:50:39.049Z,27.50
2023-05-22T22:53:07.442Z,27.50
2023-05-22T22:55:35.793Z,27.40
2023-05-22T22:58:04.501Z,27.50
2023-05-22T23:00:32.638Z,27.40
2023-05-22T23:03:00.844Z,27.40
2023-05-22T23:05:29.082Z,27.40
2023-05-22T23:08:02.005Z,27.40
2023-05-22T23:10:30.426Z,27.30
2023-05-22T23:12:59.387Z,27.30
2023-05-22T23:15:27.711Z,27.30
2023-05-22T23:17:55.918Z,27.20
2023-05-22T23:20:24.103Z,27.20
2023-05-22T23:22:52.322Z,27.20
2023-05-22T23:25:21.840Z,27.20
2023-05-22T23:27:49.956Z,27.20
2023-05-22T23:30:18.239Z,27.20
2023-05-22T23:32:46.366Z,27.10
2023-05-22T23:35:14.496Z,27.10
2023-05-22T23:37:42.572Z,27.10
2023-05-22T23:40:11.433Z,27.10
2023-05-22T23:42:40.908Z,27.00
2023-05-22T23:45:09.920Z,27.10
2023-05-22T23:47:38.076Z,27.00
2023-05-22T23:50:07.166Z,27.00
2023-05-22T23:52:35.321Z,26.90
2023-05-22T23:55:03.516Z,26.90
2023-05-22T23:57:31.834Z,26.90
